Hlavní strana
METAR-TAF:

METAR-TAF

Letiště :

Nukus, Uzbekistán

zeměpisná šířka: 42-28-48N, zeměpisná délka: 059-37-48E, výška: 77 m

Aktuální stav počasí

Zpráva byla vytvořena před 17 minutami, v 05:00 UTC
Severovýchodní vítr 8 kt
Teplota 14°C
Vlhkost vzduchu 33%
Tlak 1023 hPa
Viditelnost 10 km a více
Žádná oblačnost pod 1500 m, nevyskytují se cumulonimby.

METAR: UTNN 050500Z 05008KT CAVOK 14/M02 Q1023 R33/CLRD60 NOSIG

Čas: 10:17 (05:17 UTC)

Předpověď počasí

Zpráva byla vytvořena před 6 hodinami a 17 minutami, v 23:00 UTC
Předpověď platná od 05 v 00 UTC do 05 v 24 UTC
Severní vítr 8 kt s nárazy do 18 kt
Viditelnost 10 km a více
Žádná oblačnost pod 1500 m, nevyskytují se cumulonimby.

TAF: UTNN 042300Z 0500/0524 35008G18KT CAVOK

Stav a předpovědi počasí z více než 4 000 letišť (zprávy METAR a TAF).

Červené a žluté tečky na mapě představují dostupné meteorologické stanice.

Když kurzor umístíte na tečku, zobrazí se název stanice.

Pak kliknutím zobrazíte stav a předpověď počasí.

Chcete-li změnit mapu, kliknutím na zelené tlačítko se znaménkem +mapu přiblížíte, kliknutím na zelené tlačítko se znaménkem – mapu oddálíte a kliknutím na zelené šipky přejdete na sousední mapy.


METAR-TAF: